createdAt,value
2018-06-11T00:03:34.370Z,2.63
2018-06-11T00:09:29.397Z,2.41
2018-06-11T00:15:25.162Z,2.97
2018-06-11T00:21:19.943Z,2.8
2018-06-11T00:27:14.572Z,2.35
2018-06-11T00:33:10.459Z,3.2
2018-06-11T00:39:05.983Z,2.6
2018-06-11T00:44:59.446Z,2.41
2018-06-11T00:50:54.397Z,2.64
2018-06-11T00:56:50.240Z,2.72
2018-06-11T01:02:44.499Z,2.86
2018-06-11T01:08:39.512Z,2.48
2018-06-11T01:14:35.002Z,2.64
2018-06-11T01:20:30.817Z,2.9
2018-06-11T01:26:24.487Z,2.91
2018-06-11T01:32:19.455Z,2.69
2018-06-11T01:38:15.190Z,3
2018-06-11T01:44:10.194Z,3.06
2018-06-11T01:50:04.706Z,2.71
2018-06-11T01:55:59.471Z,3.05
2018-06-11T02:01:54.476Z,2.81
2018-06-11T02:07:49.542Z,2.86
2018-06-11T02:13:45.239Z,3.23
2018-06-11T02:19:39.460Z,2.87
2018-06-11T02:25:36.340Z,2.66
2018-06-11T02:31:29.490Z,3.11
2018-06-11T02:37:24.629Z,2.87
2018-06-11T02:43:20.287Z,3.3
2018-06-11T02:49:14.476Z,3.35
2018-06-11T02:55:09.491Z,3.23
2018-06-11T03:01:04.526Z,3.21
2018-06-11T03:06:59.942Z,3.37
2018-06-11T03:12:54.504Z,3.5
2018-06-11T03:18:49.550Z,3.53
2018-06-11T03:24:44.556Z,2.7
2018-06-11T03:30:39.546Z,3.57
2018-06-11T03:36:35.155Z,3.84
2018-06-11T03:42:29.620Z,4.09
2018-06-11T03:48:24.633Z,4.25
2018-06-11T03:54:19.593Z,3.88
2018-06-11T04:00:16.393Z,4.4
2018-06-11T04:06:09.644Z,4.34
2018-06-11T04:12:04.622Z,3.84
2018-06-11T04:17:59.621Z,3.48
2018-06-11T04:23:54.562Z,3.78
2018-06-11T04:29:50.482Z,3.82
2018-06-11T04:35:44.852Z,3.96
2018-06-11T04:41:39.576Z,3.59
2018-06-11T04:47:34.663Z,4.77
2018-06-11T04:53:29.607Z,3.43
2018-06-11T04:59:24.699Z,3.92
2018-06-11T05:05:20.532Z,4.43
2018-06-11T05:11:14.939Z,4.65
2018-06-11T05:17:09.650Z,4.47
2018-06-11T05:23:04.591Z,5.56
2018-06-11T05:28:59.628Z,5.31
2018-06-11T05:34:54.725Z,4.99
2018-06-11T05:40:49.633Z,4.88
2018-06-11T05:46:44.709Z,4.93
2018-06-11T05:52:39.901Z,5.13
2018-06-11T05:58:34.599Z,5.18
2018-06-11T06:04:29.888Z,5.17
2018-06-11T06:10:25.220Z,5.02
2018-06-11T06:16:19.662Z,5.58
2018-06-11T06:22:14.650Z,5.07
2018-06-11T06:28:09.773Z,5.01
2018-06-11T06:34:04.777Z,5.69
2018-06-11T06:39:59.784Z,5.85
2018-06-11T06:45:55.115Z,5.21
2018-06-11T06:51:49.679Z,6.54
2018-06-11T06:57:44.933Z,7.19
2018-06-11T07:03:39.706Z,5.97
2018-06-11T07:09:34.716Z,5.63
2018-06-11T07:15:29.760Z,5.4
2018-06-11T07:21:24.745Z,4.82
2018-06-11T07:27:19.721Z,5.01
2018-06-11T07:33:14.736Z,4.91
2018-06-11T07:39:10.712Z,5.1
2018-06-11T07:45:04.694Z,4.96
2018-06-11T07:50:59.718Z,4.88
2018-06-11T07:56:54.933Z,4.09
2018-06-11T08:02:50.655Z,4.09
2018-06-11T08:08:44.897Z,4.43
2018-06-11T08:14:39.850Z,3.45
2018-06-11T08:20:34.825Z,3.45
2018-06-11T08:26:30.136Z,3.52
2018-06-11T08:32:24.716Z,2.83
2018-06-11T08:38:19.761Z,3
2018-06-11T08:44:14.783Z,2.99
2018-06-11T08:50:10.678Z,2.54
2018-06-11T08:56:04.756Z,2.22
2018-06-11T09:01:59.802Z,2.75
2018-06-11T09:07:54.927Z,2.23
2018-06-11T09:13:49.961Z,2.3
2018-06-11T09:19:44.837Z,2.07
2018-06-11T09:25:39.928Z,1.81
2018-06-11T09:31:35.028Z,2.49
2018-06-11T09:37:29.828Z,1.48
2018-06-11T09:43:24.868Z,1.73
2018-06-11T09:49:19.890Z,1.71
2018-06-11T09:55:15.081Z,1.43
2018-06-11T10:01:09.845Z,1.85
2018-06-11T10:07:05.345Z,2.44
2018-06-11T10:12:59.851Z,1.98
2018-06-11T10:18:54.988Z,1.85
2018-06-11T10:24:49.943Z,2.08
2018-06-11T10:30:44.931Z,2.07
2018-06-11T10:36:39.927Z,2.2
2018-06-11T10:42:34.947Z,2.16
2018-06-11T10:48:29.864Z,1.98
2018-06-11T10:54:25.267Z,2.56
2018-06-11T11:00:19.951Z,1.74
2018-06-11T11:06:14.870Z,1.56
2018-06-11T11:12:09.998Z,1.31
2018-06-11T11:18:05.033Z,1.68
2018-06-11T11:23:59.953Z,1.6
2018-06-11T11:30:14.011Z,1.56
2018-06-11T11:36:00.915Z,2.53
2018-06-11T11:47:40.110Z,2.14
2018-06-11T11:53:34.928Z,1.88
2018-06-11T11:59:29.917Z,2.74
2018-06-11T12:05:25.449Z,1.98
2018-06-11T12:11:21.440Z,1.79
2018-06-11T12:17:14.996Z,1.38
2018-06-11T12:23:10.403Z,1.33
2018-06-11T12:29:05.068Z,1.43
2018-06-11T12:34:59.957Z,1.55
2018-06-11T12:40:54.976Z,1.54
2018-06-11T12:46:50.014Z,1.77
2018-06-11T12:52:46.057Z,1.91
2018-06-11T12:58:40.027Z,1.7
2018-06-11T13:04:36.292Z,1.85
2018-06-11T13:10:30.482Z,1.91
2018-06-11T13:16:26.445Z,2.14
2018-06-11T13:22:27.114Z,1.72
2018-06-11T13:28:15.018Z,1.72
2018-06-11T13:34:10.105Z,1.69
2018-06-11T13:40:05.833Z,1.9
2018-06-11T13:46:00.051Z,1.33
2018-06-11T13:51:55.015Z,1.11
2018-06-11T13:57:50.080Z,1.45
2018-06-11T14:03:45.234Z,1.37
2018-06-11T14:09:41.515Z,0.85
2018-06-11T14:15:35.961Z,1.23
2018-06-11T14:21:31.145Z,1.27
2018-06-11T14:27:26.337Z,1.26
2018-06-11T14:33:20.073Z,1.32
2018-06-11T14:39:15.155Z,1.3
2018-06-11T14:45:11.270Z,1.39
2018-06-11T14:51:05.101Z,1.43
2018-06-11T14:57:00.115Z,1.44
2018-06-11T15:02:55.345Z,1.33
2018-06-11T15:08:50.116Z,1.45
2018-06-11T15:14:45.476Z,2.08
2018-06-11T15:20:41.001Z,1.63
2018-06-11T15:26:35.115Z,1.66
2018-06-11T15:32:30.106Z,1.66
2018-06-11T15:38:25.168Z,1.42
2018-06-11T15:44:20.176Z,1.54
2018-06-11T15:50:15.235Z,1.63
2018-06-11T15:56:10.336Z,1.52
2018-06-11T16:02:05.215Z,1.75
2018-06-11T16:08:00.168Z,1.61
2018-06-11T16:13:55.210Z,1.7
2018-06-11T16:19:50.236Z,2.29
2018-06-11T16:25:46.070Z,1.67
2018-06-11T16:31:40.238Z,2.23
2018-06-11T16:37:35.221Z,2.9
2018-06-11T16:43:30.268Z,2.34
2018-06-11T16:49:25.198Z,2.57
2018-06-11T16:55:20.252Z,2.11
2018-06-11T17:01:15.254Z,2.47
2018-06-11T17:07:10.254Z,2.4
2018-06-11T17:13:05.211Z,2.64
2018-06-11T17:19:00.261Z,1.5
2018-06-11T17:24:55.205Z,1.77
2018-06-11T17:30:50.239Z,1.96
2018-06-11T17:36:45.255Z,2.91
2018-06-11T17:42:40.408Z,3.76
2018-06-11T17:48:35.293Z,3.52
2018-06-11T17:54:30.322Z,6.48
2018-06-11T18:00:25.859Z,2.99
2018-06-11T18:06:20.756Z,2.01
2018-06-11T18:12:15.292Z,2
2018-06-11T18:18:10.315Z,2.29
2018-06-11T18:24:05.863Z,1.98
2018-06-11T18:30:00.442Z,2.12
2018-06-11T18:35:55.317Z,2.64
2018-06-11T18:41:50.337Z,2.16
2018-06-11T18:47:45.748Z,2.7
2018-06-11T18:53:40.336Z,2.88
2018-06-11T18:59:35.310Z,2.71
2018-06-11T19:05:30.325Z,2.58
2018-06-11T19:11:25.348Z,2.47
2018-06-11T19:17:20.469Z,2.61
2018-06-11T19:23:15.434Z,2.56
2018-06-11T19:29:10.370Z,2.86
2018-06-11T19:35:05.673Z,2.37
2018-06-11T19:41:00.409Z,2.81
2018-06-11T19:46:55.377Z,2.41
2018-06-11T19:52:50.445Z,2.69
2018-06-11T19:58:45.443Z,2.75
2018-06-11T20:04:43.601Z,2.47
2018-06-11T20:10:35.379Z,2.98
2018-06-11T20:16:30.340Z,2.78
2018-06-11T20:22:25.449Z,3.08
2018-06-11T20:28:20.410Z,2.94
2018-06-11T20:34:15.446Z,3.23
2018-06-11T20:40:10.383Z,2.79
2018-06-11T20:46:05.498Z,3.21
2018-06-11T20:52:00.447Z,3.39
2018-06-11T20:57:55.486Z,2.94
2018-06-11T21:03:50.438Z,3.08
2018-06-11T21:09:45.498Z,3.65
2018-06-11T21:15:40.483Z,3.34
2018-06-11T21:21:35.463Z,4.19
2018-06-11T21:27:30.643Z,3.65
2018-06-11T21:33:25.459Z,4.2
2018-06-11T21:39:20.593Z,4.05
2018-06-11T21:45:15.443Z,4.46
2018-06-11T21:51:10.684Z,3.93
2018-06-11T21:57:05.474Z,9.04
2018-06-11T22:03:00.961Z,4.8
2018-06-11T22:08:55.598Z,5.65
2018-06-11T22:14:50.491Z,5.2
2018-06-11T22:20:45.650Z,5.16
2018-06-11T22:26:40.475Z,4.97
2018-06-11T22:32:35.527Z,4.02
2018-06-11T22:38:30.509Z,4.19
2018-06-11T22:44:25.541Z,4.65
2018-06-11T22:50:20.649Z,4.4
2018-06-11T22:56:15.525Z,4.6
2018-06-11T23:02:10.617Z,4.29
2018-06-11T23:08:05.534Z,3.89
2018-06-11T23:14:00.522Z,3.97
2018-06-11T23:19:55.524Z,4.21
2018-06-11T23:25:50.600Z,4.21
2018-06-11T23:31:45.587Z,4
2018-06-11T23:37:40.579Z,4.01
2018-06-11T23:43:35.529Z,4.25
2018-06-11T23:49:30.590Z,4.33
2018-06-11T23:55:25.693Z,3.95
